Погода Брянскна неделю

Могилёвская область, Белоруссия

25 - 31 мая
  • 25мая
    Сегодня
    +11°
    +24°
    Ясно и безоблачно
    ВремяПогодаТемператураВлажностьДавлениеВетер, м/сВероятность осадков
    00:00Ясно и безоблачно+12°C52 %758 мм3.3 м/с2 %
    03:00Ясно и безоблачно+10°C56 %758 мм3.0 м/с2 %
    06:00Ясно и безоблачно+10°C63 %758 мм2.7 м/с2 %
    09:00Ясно и безоблачно+17°C60 %758 мм2.5 м/с2 %
    12:00Ясно и безоблачно+22°C47 %758 мм2.6 м/с2 %
    15:00Ясно и безоблачно+24°C38 %757 мм2.8 м/с2 %
    18:00Ясно и безоблачно+23°C38 %756 мм2.2 м/с2 %
    21:00Ясно и безоблачно+17°C61 %756 мм2.3 м/с2 %
  • 26мая
    Воскресенье
    +12°
    +26°
    Небольшая облачность
    ВремяПогодаТемператураВлажностьДавлениеВетер, м/сВероятность осадков
    00:00Ясно и безоблачно+13°C72 %756 мм2.3 м/с2 %
    03:00Ясно и безоблачно+11°C74 %755 мм2.4 м/с2 %
    06:00Небольшая облачность+13°C71 %756 мм0.8 м/с2 %
    09:00Облачно с прояснениями+19°C54 %756 мм1.0 м/с2 %
    12:00Ясно и безоблачно+23°C38 %756 мм1.4 м/с2 %
    15:00Небольшая облачность+25°C30 %755 мм0.7 м/с2 %
    18:00Ясно и безоблачно+25°C37 %754 мм3.1 м/с2 %
    21:00Ясно и безоблачно+18°C63 %754 мм2.6 м/с2 %
  • 27мая
    Понедельник
    +12°
    +26°
    Ясно и безоблачно
    ВремяПогодаТемператураВлажностьДавлениеВетер, м/сВероятность осадков
    00:00Ясно и безоблачно+16°C63 %754 мм0.9 м/с2 %
    03:00Ясно и безоблачно+15°C71 %754 мм0.5 м/с2 %
    06:00Ясно и безоблачно+14°C81 %755 мм1.5 м/с2 %
    09:00Ясно и безоблачно+21°C59 %755 мм0.9 м/с2 %
    12:00Практически безоблачно+25°C40 %755 мм1.9 м/с2 %
    15:00Ясно и безоблачно+25°C41 %754 мм2.2 м/с12 %
    18:00Ясно и безоблачно+25°C42 %754 мм1.6 м/с19 %
    21:00Ясно и безоблачно+19°C67 %753 мм1.3 м/с8 %
  • 28мая
    Вторник
    +12°
    +27°
    Ясно и безоблачно
    ВремяПогодаТемператураВлажностьДавлениеВетер, м/сВероятность осадков
    00:00Ясно и безоблачно+16°C75 %753 мм2.3 м/с2 %
    03:00Ясно и безоблачно+13°C85 %753 мм2.1 м/с2 %
    06:00Практически безоблачно+14°C86 %753 мм2.0 м/с3 %
    09:00Ясно и безоблачно+21°C65 %753 мм1.9 м/с5 %
    12:00Ясно и безоблачно+24°C50 %752 мм2.6 м/с5 %
    15:00Ясно и безоблачно+26°C48 %751 мм2.3 м/с17 %
    18:00Небольшая облачность, возможен дождь с грозой+22°C71 %751 мм2.5 м/с38 %
    21:00Ясно и безоблачно+18°C88 %751 мм3.2 м/с10 %
  • 29мая
    Среда
    +13°
    +27°
    Практически безоблачно
    ВремяПогодаТемператураВлажностьДавлениеВетер, м/сВероятность осадков
    00:00Ясно и безоблачно+15°C90 %750 мм3.0 м/с2 %
    03:00Ясно и безоблачно+13°C90 %749 мм2.0 м/с2 %
    06:00Небольшая облачность+14°C79 %749 мм2.2 м/с2 %
    09:00Небольшая облачность+21°C60 %749 мм1.8 м/с2 %
    12:00Облачно с прояснениями+24°C43 %749 мм1.8 м/с5 %
    15:00Практически безоблачно+27°C31 %748 мм1.7 м/с22 %
    18:00Ясно и безоблачно+26°C35 %747 мм2.3 м/с17 %
    21:00Небольшая облачность+20°C56 %747 мм2.4 м/с3 %
Мы используем cookies
Соглашаюсь